sensor_id;sensor_type;location;lat;lon;timestamp;temperature;humidity
64226;DHT22;50545;56.064;26.178;2023-03-23T00:01:08;8.20;99.90
64226;DHT22;50545;56.064;26.178;2023-03-23T00:03:39;8.20;99.90
64226;DHT22;50545;56.064;26.178;2023-03-23T00:06:06;8.20;99.90
64226;DHT22;50545;56.064;26.178;2023-03-23T00:08:33;8.20;99.90
64226;DHT22;50545;56.064;26.178;2023-03-23T00:11:06;8.20;99.90
64226;DHT22;50545;56.064;26.178;2023-03-23T00:13:33;8.20;99.90
64226;DHT22;50545;56.064;26.178;2023-03-23T00:15:59;8.10;99.90
64226;DHT22;50545;56.064;26.178;2023-03-23T00:18:25;8.10;99.90
64226;DHT22;50545;56.064;26.178;2023-03-23T00:20:53;8.10;99.90
64226;DHT22;50545;56.064;26.178;2023-03-23T00:23:22;8.10;99.90
64226;DHT22;50545;56.064;26.178;2023-03-23T00:25:51;8.10;99.90
64226;DHT22;50545;56.064;26.178;2023-03-23T00:28:20;8.10;99.90
64226;DHT22;50545;56.064;26.178;2023-03-23T00:31:01;8.10;99.90
64226;DHT22;50545;56.064;26.178;2023-03-23T00:33:29;8.10;99.90
64226;DHT22;50545;56.064;26.178;2023-03-23T00:35:55;8.10;99.90
64226;DHT22;50545;56.064;26.178;2023-03-23T00:38:24;8.10;99.90
64226;DHT22;50545;56.064;26.178;2023-03-23T00:40:50;8.10;99.90
64226;DHT22;50545;56.064;26.178;2023-03-23T00:43:18;8.10;99.90
64226;DHT22;50545;56.064;26.178;2023-03-23T00:45:45;8.10;99.90
64226;DHT22;50545;56.064;26.178;2023-03-23T00:48:24;8.10;99.90
64226;DHT22;50545;56.064;26.178;2023-03-23T00:50:51;8.10;99.90
64226;DHT22;50545;56.064;26.178;2023-03-23T00:53:18;8.10;99.90
64226;DHT22;50545;56.064;26.178;2023-03-23T00:55:46;8.10;99.90
64226;DHT22;50545;56.064;26.178;2023-03-23T00:58:13;8.10;99.90
64226;DHT22;50545;56.064;26.178;2023-03-23T01:00:39;8.10;99.90
64226;DHT22;50545;56.064;26.178;2023-03-23T01:03:06;8.10;99.90
64226;DHT22;50545;56.064;26.178;2023-03-23T01:05:36;8.10;99.90
64226;DHT22;50545;56.064;26.178;2023-03-23T01:08:04;8.10;99.90
64226;DHT22;50545;56.064;26.178;2023-03-23T01:10:30;8.10;99.90
64226;DHT22;50545;56.064;26.178;2023-03-23T01:12:59;8.10;99.90
64226;DHT22;50545;56.064;26.178;2023-03-23T01:15:27;8.10;99.90
64226;DHT22;50545;56.064;26.178;2023-03-23T01:17:54;8.10;99.90
64226;DHT22;50545;56.064;26.178;2023-03-23T01:20:20;8.10;99.90
64226;DHT22;50545;56.064;26.178;2023-03-23T01:22:46;8.10;99.90
64226;DHT22;50545;56.064;26.178;2023-03-23T01:25:13;8.10;99.90
64226;DHT22;50545;56.064;26.178;2023-03-23T01:27:40;8.10;99.90
64226;DHT22;50545;56.064;26.178;2023-03-23T01:30:11;8.10;99.90
64226;DHT22;50545;56.064;26.178;2023-03-23T01:32:38;8.10;99.90
64226;DHT22;50545;56.064;26.178;2023-03-23T01:35:04;8.10;99.90
64226;DHT22;50545;56.064;26.178;2023-03-23T01:37:30;8.10;99.90
64226;DHT22;50545;56.064;26.178;2023-03-23T01:39:57;8.10;99.90
64226;DHT22;50545;56.064;26.178;2023-03-23T01:42:34;8.10;99.90
64226;DHT22;50545;56.064;26.178;2023-03-23T01:47:46;8.10;99.90
64226;DHT22;50545;56.064;26.178;2023-03-23T01:50:13;8.10;99.90
64226;DHT22;50545;56.064;26.178;2023-03-23T01:52:40;8.10;99.90
64226;DHT22;50545;56.064;26.178;2023-03-23T01:55:06;8.10;99.90
64226;DHT22;50545;56.064;26.178;2023-03-23T01:57:33;8.10;99.90
64226;DHT22;50545;56.064;26.178;2023-03-23T02:00:05;8.10;99.90
64226;DHT22;50545;56.064;26.178;2023-03-23T02:02:41;8.10;99.90
64226;DHT22;50545;56.064;26.178;2023-03-23T02:05:19;8.10;99.90
64226;DHT22;50545;56.064;26.178;2023-03-23T02:07:47;8.10;99.90
64226;DHT22;50545;56.064;26.178;2023-03-23T02:10:14;8.10;99.90
64226;DHT22;50545;56.064;26.178;2023-03-23T02:12:41;8.10;99.90
64226;DHT22;50545;56.064;26.178;2023-03-23T02:15:07;8.10;99.90
64226;DHT22;50545;56.064;26.178;2023-03-23T02:17:50;8.10;99.90
64226;DHT22;50545;56.064;26.178;2023-03-23T02:34:20;8.20;99.90
64226;DHT22;50545;56.064;26.178;2023-03-23T02:36:59;8.20;99.90
64226;DHT22;50545;56.064;26.178;2023-03-23T02:39:32;8.20;99.90
64226;DHT22;50545;56.064;26.178;2023-03-23T02:42:06;8.20;99.90
64226;DHT22;50545;56.064;26.178;2023-03-23T02:44:35;8.10;99.90
64226;DHT22;50545;56.064;26.178;2023-03-23T02:47:06;8.10;99.90
64226;DHT22;50545;56.064;26.178;2023-03-23T02:49:35;8.10;99.90
64226;DHT22;50545;56.064;26.178;2023-03-23T02:52:07;8.10;99.90
64226;DHT22;50545;56.064;26.178;2023-03-23T02:54:34;8.10;99.90
64226;DHT22;50545;56.064;26.178;2023-03-23T02:57:01;8.10;99.90
64226;DHT22;50545;56.064;26.178;2023-03-23T02:59:28;8.10;99.90
64226;DHT22;50545;56.064;26.178;2023-03-23T03:02:01;8.10;99.90
64226;DHT22;50545;56.064;26.178;2023-03-23T03:04:31;8.10;99.90
64226;DHT22;50545;56.064;26.178;2023-03-23T03:09:51;8.10;99.90
64226;DHT22;50545;56.064;26.178;2023-03-23T03:18:01;8.20;99.90
64226;DHT22;50545;56.064;26.178;2023-03-23T03:20:30;8.20;99.90
64226;DHT22;50545;56.064;26.178;2023-03-23T03:22:57;8.30;99.90
64226;DHT22;50545;56.064;26.178;2023-03-23T03:25:23;8.20;99.90
64226;DHT22;50545;56.064;26.178;2023-03-23T03:27:51;8.20;99.90
64226;DHT22;50545;56.064;26.178;2023-03-23T03:30:22;8.20;99.90
64226;DHT22;50545;56.064;26.178;2023-03-23T03:32:51;8.20;99.90
64226;DHT22;50545;56.064;26.178;2023-03-23T03:35:21;8.30;99.90
64226;DHT22;50545;56.064;26.178;2023-03-23T03:37:47;8.30;99.90
64226;DHT22;50545;56.064;26.178;2023-03-23T03:40:15;8.30;99.90
64226;DHT22;50545;56.064;26.178;2023-03-23T03:42:44;8.30;99.90
64226;DHT22;50545;56.064;26.178;2023-03-23T03:45:14;8.30;99.90
64226;DHT22;50545;56.064;26.178;2023-03-23T03:47:40;8.40;99.90
64226;DHT22;50545;56.064;26.178;2023-03-23T03:50:06;8.30;99.90
64226;DHT22;50545;56.064;26.178;2023-03-23T03:52:33;8.40;99.90
64226;DHT22;50545;56.064;26.178;2023-03-23T03:54:59;8.40;99.90
64226;DHT22;50545;56.064;26.178;2023-03-23T03:57:25;8.40;99.90
64226;DHT22;50545;56.064;26.178;2023-03-23T03:59:51;8.40;99.90
64226;DHT22;50545;56.064;26.178;2023-03-23T04:02:18;8.30;99.90
64226;DHT22;50545;56.064;26.178;2023-03-23T04:04:49;8.40;99.90
64226;DHT22;50545;56.064;26.178;2023-03-23T04:07:18;8.40;99.90
64226;DHT22;50545;56.064;26.178;2023-03-23T04:09:45;8.40;99.90
64226;DHT22;50545;56.064;26.178;2023-03-23T04:12:16;8.40;99.90
64226;DHT22;50545;56.064;26.178;2023-03-23T04:14:42;8.40;99.90
64226;DHT22;50545;56.064;26.178;2023-03-23T04:17:08;8.40;99.90
64226;DHT22;50545;56.064;26.178;2023-03-23T04:19:37;8.40;99.90
64226;DHT22;50545;56.064;26.178;2023-03-23T04:22:04;8.40;99.90
64226;DHT22;50545;56.064;26.178;2023-03-23T04:24:30;8.40;99.90
64226;DHT22;50545;56.064;26.178;2023-03-23T04:26:59;8.40;99.90
64226;DHT22;50545;56.064;26.178;2023-03-23T04:29:26;8.30;99.90
64226;DHT22;50545;56.064;26.178;2023-03-23T04:31:52;8.30;99.90
64226;DHT22;50545;56.064;26.178;2023-03-23T04:34:18;8.30;99.90
64226;DHT22;50545;56.064;26.178;2023-03-23T04:36:45;8.30;99.90
64226;DHT22;50545;56.064;26.178;2023-03-23T04:39:12;8.30;99.90
64226;DHT22;50545;56.064;26.178;2023-03-23T04:41:39;8.30;99.90
64226;DHT22;50545;56.064;26.178;2023-03-23T04:44:06;8.30;99.90
64226;DHT22;50545;56.064;26.178;2023-03-23T04:46:32;8.20;99.90
64226;DHT22;50545;56.064;26.178;2023-03-23T04:48:59;8.20;99.90
64226;DHT22;50545;56.064;26.178;2023-03-23T04:51:28;8.20;99.90
64226;DHT22;50545;56.064;26.178;2023-03-23T04:53:55;8.20;99.90
64226;DHT22;50545;56.064;26.178;2023-03-23T04:56:21;8.20;99.90
64226;DHT22;50545;56.064;26.178;2023-03-23T04:58:47;8.20;99.90
64226;DHT22;50545;56.064;26.178;2023-03-23T05:01:14;8.30;99.90
64226;DHT22;50545;56.064;26.178;2023-03-23T05:03:40;8.30;99.90
64226;DHT22;50545;56.064;26.178;2023-03-23T05:06:07;8.30;99.90
64226;DHT22;50545;56.064;26.178;2023-03-23T05:08:33;8.30;99.90
64226;DHT22;50545;56.064;26.178;2023-03-23T05:11:00;8.30;99.90
64226;DHT22;50545;56.064;26.178;2023-03-23T05:13:29;8.30;99.90
64226;DHT22;50545;56.064;26.178;2023-03-23T05:15:55;8.30;99.90
64226;DHT22;50545;56.064;26.178;2023-03-23T05:18:21;8.30;99.90
64226;DHT22;50545;56.064;26.178;2023-03-23T05:20:47;8.30;99.90
64226;DHT22;50545;56.064;26.178;2023-03-23T05:23:15;8.30;99.90
64226;DHT22;50545;56.064;26.178;2023-03-23T05:25:41;8.30;99.90
64226;DHT22;50545;56.064;26.178;2023-03-23T05:28:10;8.40;99.90
64226;DHT22;50545;56.064;26.178;2023-03-23T05:30:38;8.40;99.90
64226;DHT22;50545;56.064;26.178;2023-03-23T05:33:05;8.40;99.90
64226;DHT22;50545;56.064;26.178;2023-03-23T05:35:31;8.50;99.90
64226;DHT22;50545;56.064;26.178;2023-03-23T05:37:57;8.40;99.90
64226;DHT22;50545;56.064;26.178;2023-03-23T05:40:23;8.40;99.90
64226;DHT22;50545;56.064;26.178;2023-03-23T05:42:52;8.50;99.90
64226;DHT22;50545;56.064;26.178;2023-03-23T05:45:18;8.50;99.90
64226;DHT22;50545;56.064;26.178;2023-03-23T05:47:44;8.50;99.90
64226;DHT22;50545;56.064;26.178;2023-03-23T05:50:11;8.50;99.90
64226;DHT22;50545;56.064;26.178;2023-03-23T05:52:38;8.50;99.90
64226;DHT22;50545;56.064;26.178;2023-03-23T05:55:05;8.50;99.90
64226;DHT22;50545;56.064;26.178;2023-03-23T05:57:32;8.50;99.90
64226;DHT22;50545;56.064;26.178;2023-03-23T05:59:58;8.50;99.90
64226;DHT22;50545;56.064;26.178;2023-03-23T06:02:24;8.60;99.90
64226;DHT22;50545;56.064;26.178;2023-03-23T06:04:54;8.60;99.90
64226;DHT22;50545;56.064;26.178;2023-03-23T06:07:26;8.60;99.90
64226;DHT22;50545;56.064;26.178;2023-03-23T06:09:52;8.60;99.90
64226;DHT22;50545;56.064;26.178;2023-03-23T06:12:18;8.70;99.90
64226;DHT22;50545;56.064;26.178;2023-03-23T06:14:48;8.80;99.90
64226;DHT22;50545;56.064;26.178;2023-03-23T06:17:15;8.80;99.90
64226;DHT22;50545;56.064;26.178;2023-03-23T06:19:43;8.80;99.90
64226;DHT22;50545;56.064;26.178;2023-03-23T06:22:11;8.80;99.90
64226;DHT22;50545;56.064;26.178;2023-03-23T06:24:37;8.90;99.90
64226;DHT22;50545;56.064;26.178;2023-03-23T06:27:03;8.90;99.90
64226;DHT22;50545;56.064;26.178;2023-03-23T06:29:30;8.90;99.90
64226;DHT22;50545;56.064;26.178;2023-03-23T06:32:00;9.00;99.90
64226;DHT22;50545;56.064;26.178;2023-03-23T06:34:28;9.00;99.90
64226;DHT22;50545;56.064;26.178;2023-03-23T06:36:55;9.10;99.90
64226;DHT22;50545;56.064;26.178;2023-03-23T06:39:22;9.20;99.90
64226;DHT22;50545;56.064;26.178;2023-03-23T06:41:50;9.20;99.90
64226;DHT22;50545;56.064;26.178;2023-03-23T06:44:16;9.20;99.90
64226;DHT22;50545;56.064;26.178;2023-03-23T06:46:42;9.20;99.90
64226;DHT22;50545;56.064;26.178;2023-03-23T06:49:08;9.20;99.90
64226;DHT22;50545;56.064;26.178;2023-03-23T06:51:35;9.30;99.90
64226;DHT22;50545;56.064;26.178;2023-03-23T06:54:03;9.20;99.90
64226;DHT22;50545;56.064;26.178;2023-03-23T06:56:29;9.30;99.90
64226;DHT22;50545;56.064;26.178;2023-03-23T06:58:55;9.20;99.90
64226;DHT22;50545;56.064;26.178;2023-03-23T07:01:21;9.20;99.90
64226;DHT22;50545;56.064;26.178;2023-03-23T07:03:47;9.20;99.90
64226;DHT22;50545;56.064;26.178;2023-03-23T07:06:14;9.20;99.90
64226;DHT22;50545;56.064;26.178;2023-03-23T07:08:42;9.20;99.90
64226;DHT22;50545;56.064;26.178;2023-03-23T07:11:08;9.20;99.90
64226;DHT22;50545;56.064;26.178;2023-03-23T07:13:35;9.30;99.90
64226;DHT22;50545;56.064;26.178;2023-03-23T07:16:05;9.30;99.90
64226;DHT22;50545;56.064;26.178;2023-03-23T07:18:31;9.30;99.90
64226;DHT22;50545;56.064;26.178;2023-03-23T07:20:58;9.40;99.90
64226;DHT22;50545;56.064;26.178;2023-03-23T07:23:24;9.50;99.90
64226;DHT22;50545;56.064;26.178;2023-03-23T07:25:50;9.60;99.90
64226;DHT22;50545;56.064;26.178;2023-03-23T07:28:16;9.60;99.90
64226;DHT22;50545;56.064;26.178;2023-03-23T07:30:42;9.70;99.90
64226;DHT22;50545;56.064;26.178;2023-03-23T07:33:09;9.80;99.90
64226;DHT22;50545;56.064;26.178;2023-03-23T07:35:35;9.80;99.90
64226;DHT22;50545;56.064;26.178;2023-03-23T07:38:02;9.90;99.90
64226;DHT22;50545;56.064;26.178;2023-03-23T07:40:29;9.90;99.90
64226;DHT22;50545;56.064;26.178;2023-03-23T07:42:59;9.90;99.90
64226;DHT22;50545;56.064;26.178;2023-03-23T07:45:26;9.90;99.90
64226;DHT22;50545;56.064;26.178;2023-03-23T07:47:52;10.00;99.90
64226;DHT22;50545;56.064;26.178;2023-03-23T07:50:19;10.00;99.90
64226;DHT22;50545;56.064;26.178;2023-03-23T07:52:51;10.10;99.90
64226;DHT22;50545;56.064;26.178;2023-03-23T07:55:18;10.20;99.90
64226;DHT22;50545;56.064;26.178;2023-03-23T07:57:45;10.30;99.90
64226;DHT22;50545;56.064;26.178;2023-03-23T08:00:14;10.40;99.90
64226;DHT22;50545;56.064;26.178;2023-03-23T08:02:48;10.50;99.90
64226;DHT22;50545;56.064;26.178;2023-03-23T08:05:16;10.60;99.90
64226;DHT22;50545;56.064;26.178;2023-03-23T08:07:43;10.60;99.90
64226;DHT22;50545;56.064;26.178;2023-03-23T08:10:12;10.70;99.90
64226;DHT22;50545;56.064;26.178;2023-03-23T08:12:39;10.60;99.90
64226;DHT22;50545;56.064;26.178;2023-03-23T08:15:07;10.60;99.90
64226;DHT22;50545;56.064;26.178;2023-03-23T08:17:34;10.50;99.90
64226;DHT22;50545;56.064;26.178;2023-03-23T08:20:01;10.50;99.90
64226;DHT22;50545;56.064;26.178;2023-03-23T08:22:33;10.50;99.90
64226;DHT22;50545;56.064;26.178;2023-03-23T08:25:02;10.50;99.90
64226;DHT22;50545;56.064;26.178;2023-03-23T08:27:29;10.40;99.90
64226;DHT22;50545;56.064;26.178;2023-03-23T08:29:55;10.40;99.90
64226;DHT22;50545;56.064;26.178;2023-03-23T08:32:21;10.40;99.90
64226;DHT22;50545;56.064;26.178;2023-03-23T08:34:48;10.40;99.90
64226;DHT22;50545;56.064;26.178;2023-03-23T08:37:15;10.40;99.90
64226;DHT22;50545;56.064;26.178;2023-03-23T08:39:41;10.30;99.90
64226;DHT22;50545;56.064;26.178;2023-03-23T08:42:09;10.30;99.90
64226;DHT22;50545;56.064;26.178;2023-03-23T08:44:36;10.20;99.90
64226;DHT22;50545;56.064;26.178;2023-03-23T08:47:02;10.20;99.90
64226;DHT22;50545;56.064;26.178;2023-03-23T08:49:30;10.20;99.90
64226;DHT22;50545;56.064;26.178;2023-03-23T08:51:58;10.20;99.90
64226;DHT22;50545;56.064;26.178;2023-03-23T08:54:25;10.20;99.90
64226;DHT22;50545;56.064;26.178;2023-03-23T08:56:51;10.20;99.90
64226;DHT22;50545;56.064;26.178;2023-03-23T08:59:17;10.30;99.90
64226;DHT22;50545;56.064;26.178;2023-03-23T09:01:43;10.30;99.90
64226;DHT22;50545;56.064;26.178;2023-03-23T09:04:09;10.30;99.90
64226;DHT22;50545;56.064;26.178;2023-03-23T09:06:38;10.30;99.90
64226;DHT22;50545;56.064;26.178;2023-03-23T09:09:04;10.30;99.90
64226;DHT22;50545;56.064;26.178;2023-03-23T09:11:35;10.30;99.90
64226;DHT22;50545;56.064;26.178;2023-03-23T09:14:02;10.40;99.90
64226;DHT22;50545;56.064;26.178;2023-03-23T09:16:29;10.30;99.90
64226;DHT22;50545;56.064;26.178;2023-03-23T09:18:55;10.30;99.90
64226;DHT22;50545;56.064;26.178;2023-03-23T09:21:26;10.30;99.90
64226;DHT22;50545;56.064;26.178;2023-03-23T09:23:53;10.40;99.90
64226;DHT22;50545;56.064;26.178;2023-03-23T09:26:22;10.30;99.90
64226;DHT22;50545;56.064;26.178;2023-03-23T09:28:48;10.30;99.90
64226;DHT22;50545;56.064;26.178;2023-03-23T09:31:14;10.30;99.90
64226;DHT22;50545;56.064;26.178;2023-03-23T09:33:41;10.20;99.90
64226;DHT22;50545;56.064;26.178;2023-03-23T09:36:08;10.20;99.90
64226;DHT22;50545;56.064;26.178;2023-03-23T09:38:38;10.20;99.90
64226;DHT22;50545;56.064;26.178;2023-03-23T09:46:55;10.00;99.90
64226;DHT22;50545;56.064;26.178;2023-03-23T09:49:32;10.00;99.90
64226;DHT22;50545;56.064;26.178;2023-03-23T09:52:17;10.00;99.90
64226;DHT22;50545;56.064;26.178;2023-03-23T09:54:47;10.00;99.90
64226;DHT22;50545;56.064;26.178;2023-03-23T09:57:30;10.10;99.90
64226;DHT22;50545;56.064;26.178;2023-03-23T10:00:06;10.10;99.90
64226;DHT22;50545;56.064;26.178;2023-03-23T10:02:36;10.10;99.90
64226;DHT22;50545;56.064;26.178;2023-03-23T10:05:36;10.20;99.90
64226;DHT22;50545;56.064;26.178;2023-03-23T10:08:10;10.20;99.90
64226;DHT22;50545;56.064;26.178;2023-03-23T10:13:44;10.30;99.90
64226;DHT22;50545;56.064;26.178;2023-03-23T10:17:18;10.20;99.90
64226;DHT22;50545;56.064;26.178;2023-03-23T10:19:47;10.20;99.90
64226;DHT22;50545;56.064;26.178;2023-03-23T10:22:20;10.20;99.90
64226;DHT22;50545;56.064;26.178;2023-03-23T10:25:37;10.20;99.90
64226;DHT22;50545;56.064;26.178;2023-03-23T10:30:33;10.20;99.90
64226;DHT22;50545;56.064;26.178;2023-03-23T10:33:18;10.30;99.90
64226;DHT22;50545;56.064;26.178;2023-03-23T10:38:48;10.40;99.90
64226;DHT22;50545;56.064;26.178;2023-03-23T10:41:17;10.60;99.90
64226;DHT22;50545;56.064;26.178;2023-03-23T10:43:45;10.70;99.90
64226;DHT22;50545;56.064;26.178;2023-03-23T10:49:06;11.00;99.90
64226;DHT22;50545;56.064;26.178;2023-03-23T10:51:36;11.10;99.90
64226;DHT22;50545;56.064;26.178;2023-03-23T10:54:04;11.30;99.90
64226;DHT22;50545;56.064;26.178;2023-03-23T10:56:42;11.50;99.90
64226;DHT22;50545;56.064;26.178;2023-03-23T10:59:30;11.50;99.90
64226;DHT22;50545;56.064;26.178;2023-03-23T11:02:02;11.50;99.90
64226;DHT22;50545;56.064;26.178;2023-03-23T11:04:30;11.50;99.90
64226;DHT22;50545;56.064;26.178;2023-03-23T11:07:01;11.40;99.90
64226;DHT22;50545;56.064;26.178;2023-03-23T11:09:53;11.30;99.90
64226;DHT22;50545;56.064;26.178;2023-03-23T11:12:20;11.30;99.90
64226;DHT22;50545;56.064;26.178;2023-03-23T11:14:46;11.30;99.90
64226;DHT22;50545;56.064;26.178;2023-03-23T11:17:26;11.30;99.90
64226;DHT22;50545;56.064;26.178;2023-03-23T11:19:53;11.30;99.90
64226;DHT22;50545;56.064;26.178;2023-03-23T11:22:29;11.30;99.90
64226;DHT22;50545;56.064;26.178;2023-03-23T11:24:59;11.30;99.90
64226;DHT22;50545;56.064;26.178;2023-03-23T11:27:26;11.30;99.90
64226;DHT22;50545;56.064;26.178;2023-03-23T11:30:25;11.40;99.90
64226;DHT22;50545;56.064;26.178;2023-03-23T11:32:54;11.40;99.90
64226;DHT22;50545;56.064;26.178;2023-03-23T11:35:27;11.50;99.90
64226;DHT22;50545;56.064;26.178;2023-03-23T11:37:57;11.50;99.90
64226;DHT22;50545;56.064;26.178;2023-03-23T11:40:27;11.60;99.90
64226;DHT22;50545;56.064;26.178;2023-03-23T11:43:01;11.60;99.90
64226;DHT22;50545;56.064;26.178;2023-03-23T11:56:34;11.90;99.90
64226;DHT22;50545;56.064;26.178;2023-03-23T11:59:01;11.90;99.90
64226;DHT22;50545;56.064;26.178;2023-03-23T12:04:31;11.80;99.90
64226;DHT22;50545;56.064;26.178;2023-03-23T12:07:18;11.90;99.90
64226;DHT22;50545;56.064;26.178;2023-03-23T12:17:51;12.20;99.90
64226;DHT22;50545;56.064;26.178;2023-03-23T12:26:02;12.30;99.90
64226;DHT22;50545;56.064;26.178;2023-03-23T12:47:54;12.30;99.90
64226;DHT22;50545;56.064;26.178;2023-03-23T12:50:42;12.30;99.90
64226;DHT22;50545;56.064;26.178;2023-03-23T12:53:18;12.20;99.90
64226;DHT22;50545;56.064;26.178;2023-03-23T12:58:21;12.00;99.90
64226;DHT22;50545;56.064;26.178;2023-03-23T13:03:22;11.70;99.90
64226;DHT22;50545;56.064;26.178;2023-03-23T13:05:54;11.50;99.90
64226;DHT22;50545;56.064;26.178;2023-03-23T13:08:42;11.50;99.90
64226;DHT22;50545;56.064;26.178;2023-03-23T13:11:19;11.40;99.90
64226;DHT22;50545;56.064;26.178;2023-03-23T13:13:54;11.30;99.90
64226;DHT22;50545;56.064;26.178;2023-03-23T13:16:51;11.20;99.90
64226;DHT22;50545;56.064;26.178;2023-03-23T13:25:41;11.00;99.90
64226;DHT22;50545;56.064;26.178;2023-03-23T13:28:20;11.00;99.90
64226;DHT22;50545;56.064;26.178;2023-03-23T13:31:13;10.90;99.90
64226;DHT22;50545;56.064;26.178;2023-03-23T13:33:46;10.80;99.90
64226;DHT22;50545;56.064;26.178;2023-03-23T13:36:14;10.70;99.90
64226;DHT22;50545;56.064;26.178;2023-03-23T13:38:53;10.70;99.90
64226;DHT22;50545;56.064;26.178;2023-03-23T13:41:20;10.60;99.90
64226;DHT22;50545;56.064;26.178;2023-03-23T13:43:48;10.60;99.90
64226;DHT22;50545;56.064;26.178;2023-03-23T13:46:29;10.50;99.90
64226;DHT22;50545;56.064;26.178;2023-03-23T13:49:18;10.50;99.90
64226;DHT22;50545;56.064;26.178;2023-03-23T13:56:56;10.50;99.90
64226;DHT22;50545;56.064;26.178;2023-03-23T13:59:47;10.40;99.90
64226;DHT22;50545;56.064;26.178;2023-03-23T14:02:39;10.40;99.90
64226;DHT22;50545;56.064;26.178;2023-03-23T14:05:25;10.30;99.90
64226;DHT22;50545;56.064;26.178;2023-03-23T14:08:02;10.40;99.90
64226;DHT22;50545;56.064;26.178;2023-03-23T14:10:39;10.30;99.90
64226;DHT22;50545;56.064;26.178;2023-03-23T14:13:24;10.30;99.90
64226;DHT22;50545;56.064;26.178;2023-03-23T14:16:24;10.30;99.90
64226;DHT22;50545;56.064;26.178;2023-03-23T14:18:53;10.30;99.90
64226;DHT22;50545;56.064;26.178;2023-03-23T14:21:40;10.30;99.90
64226;DHT22;50545;56.064;26.178;2023-03-23T14:24:12;10.20;99.90
64226;DHT22;50545;56.064;26.178;2023-03-23T14:26:40;10.20;99.90
64226;DHT22;50545;56.064;26.178;2023-03-23T14:29:10;10.20;99.90
64226;DHT22;50545;56.064;26.178;2023-03-23T14:31:37;10.20;99.90
64226;DHT22;50545;56.064;26.178;2023-03-23T14:34:13;10.20;99.90
64226;DHT22;50545;56.064;26.178;2023-03-23T14:36:40;10.20;99.90
64226;DHT22;50545;56.064;26.178;2023-03-23T14:42:00;10.10;99.90
64226;DHT22;50545;56.064;26.178;2023-03-23T14:44:30;10.20;99.90
64226;DHT22;50545;56.064;26.178;2023-03-23T14:47:00;10.10;99.90
64226;DHT22;50545;56.064;26.178;2023-03-23T14:49:29;10.10;99.90
64226;DHT22;50545;56.064;26.178;2023-03-23T14:51:55;10.10;99.90
64226;DHT22;50545;56.064;26.178;2023-03-23T14:54:24;10.10;99.90
64226;DHT22;50545;56.064;26.178;2023-03-23T14:56:50;10.10;99.90
64226;DHT22;50545;56.064;26.178;2023-03-23T14:59:17;10.10;99.90
64226;DHT22;50545;56.064;26.178;2023-03-23T15:01:43;10.10;99.90
64226;DHT22;50545;56.064;26.178;2023-03-23T15:04:23;10.00;99.90
64226;DHT22;50545;56.064;26.178;2023-03-23T15:07:00;10.10;99.90
64226;DHT22;50545;56.064;26.178;2023-03-23T15:09:27;10.00;99.90
64226;DHT22;50545;56.064;26.178;2023-03-23T15:12:00;10.10;99.90
64226;DHT22;50545;56.064;26.178;2023-03-23T15:16:56;10.00;99.90
64226;DHT22;50545;56.064;26.178;2023-03-23T15:19:42;10.00;99.90
64226;DHT22;50545;56.064;26.178;2023-03-23T15:22:30;10.00;99.90
64226;DHT22;50545;56.064;26.178;2023-03-23T15:25:08;10.00;99.90
64226;DHT22;50545;56.064;26.178;2023-03-23T15:27:41;10.00;99.90
64226;DHT22;50545;56.064;26.178;2023-03-23T15:32:54;10.10;99.90
64226;DHT22;50545;56.064;26.178;2023-03-23T15:35:23;10.00;99.90
64226;DHT22;50545;56.064;26.178;2023-03-23T15:37:53;10.00;99.90
64226;DHT22;50545;56.064;26.178;2023-03-23T15:40:24;10.00;99.90
64226;DHT22;50545;56.064;26.178;2023-03-23T15:43:15;10.00;99.90
64226;DHT22;50545;56.064;26.178;2023-03-23T15:48:52;10.00;99.90
64226;DHT22;50545;56.064;26.178;2023-03-23T15:51:22;10.00;99.90
64226;DHT22;50545;56.064;26.178;2023-03-23T15:53:51;10.00;99.90
64226;DHT22;50545;56.064;26.178;2023-03-23T15:56:17;10.00;99.90
64226;DHT22;50545;56.064;26.178;2023-03-23T15:58:44;10.00;99.90
64226;DHT22;50545;56.064;26.178;2023-03-23T16:01:23;10.00;99.90
64226;DHT22;50545;56.064;26.178;2023-03-23T16:06:34;10.00;99.90
64226;DHT22;50545;56.064;26.178;2023-03-23T16:09:03;10.00;99.90
64226;DHT22;50545;56.064;26.178;2023-03-23T16:11:31;10.00;99.90
64226;DHT22;50545;56.064;26.178;2023-03-23T16:14:00;10.00;99.90
64226;DHT22;50545;56.064;26.178;2023-03-23T16:16:33;10.00;99.90
64226;DHT22;50545;56.064;26.178;2023-03-23T16:19:00;10.00;99.90
64226;DHT22;50545;56.064;26.178;2023-03-23T16:21:28;10.00;99.90
64226;DHT22;50545;56.064;26.178;2023-03-23T16:23:55;9.90;99.90
64226;DHT22;50545;56.064;26.178;2023-03-23T16:26:23;9.90;99.90
64226;DHT22;50545;56.064;26.178;2023-03-23T16:28:50;9.90;99.90
64226;DHT22;50545;56.064;26.178;2023-03-23T16:31:29;9.90;99.90
64226;DHT22;50545;56.064;26.178;2023-03-23T16:33:56;9.90;99.90
64226;DHT22;50545;56.064;26.178;2023-03-23T16:36:23;9.90;99.90
64226;DHT22;50545;56.064;26.178;2023-03-23T16:38:51;9.90;99.90
64226;DHT22;50545;56.064;26.178;2023-03-23T16:41:20;9.80;99.90
64226;DHT22;50545;56.064;26.178;2023-03-23T16:43:47;9.90;99.90
64226;DHT22;50545;56.064;26.178;2023-03-23T16:46:14;9.80;99.90
64226;DHT22;50545;56.064;26.178;2023-03-23T16:48:42;9.80;99.90
64226;DHT22;50545;56.064;26.178;2023-03-23T16:51:09;9.80;99.90
64226;DHT22;50545;56.064;26.178;2023-03-23T16:53:37;9.80;99.90
64226;DHT22;50545;56.064;26.178;2023-03-23T16:56:04;9.80;99.90
64226;DHT22;50545;56.064;26.178;2023-03-23T16:58:31;9.80;99.90
64226;DHT22;50545;56.064;26.178;2023-03-23T17:01:00;9.80;99.90
64226;DHT22;50545;56.064;26.178;2023-03-23T17:03:27;9.80;99.90
64226;DHT22;50545;56.064;26.178;2023-03-23T17:05:55;9.80;99.90
64226;DHT22;50545;56.064;26.178;2023-03-23T17:08:22;9.80;99.90
64226;DHT22;50545;56.064;26.178;2023-03-23T17:10:49;9.80;99.90
64226;DHT22;50545;56.064;26.178;2023-03-23T17:13:17;9.70;99.90
64226;DHT22;50545;56.064;26.178;2023-03-23T17:15:45;9.80;99.90
64226;DHT22;50545;56.064;26.178;2023-03-23T17:18:14;9.80;99.90
64226;DHT22;50545;56.064;26.178;2023-03-23T17:20:42;9.70;99.90
64226;DHT22;50545;56.064;26.178;2023-03-23T17:23:10;9.70;99.90
64226;DHT22;50545;56.064;26.178;2023-03-23T17:25:37;9.70;99.90
64226;DHT22;50545;56.064;26.178;2023-03-23T17:28:05;9.70;99.90
64226;DHT22;50545;56.064;26.178;2023-03-23T17:30:33;9.70;99.90
64226;DHT22;50545;56.064;26.178;2023-03-23T17:33:01;9.70;99.90
64226;DHT22;50545;56.064;26.178;2023-03-23T17:35:29;9.70;99.90
64226;DHT22;50545;56.064;26.178;2023-03-23T17:37:56;9.70;99.90
64226;DHT22;50545;56.064;26.178;2023-03-23T17:40:23;9.70;99.90
64226;DHT22;50545;56.064;26.178;2023-03-23T17:42:51;9.70;99.90